Time;durP1;ratioP1;P1;durP2;ratioP2;P2;SDS_P1;SDS_P2;PMS_P1;PMS_P2;Temp;Humidity;BMP_temperature;BMP_pressure;BME280_temperature;BME280_humidity;BME280_pressure;Samples;Min_cycle;Max_cycle;Signal;HPM_P1;HPM_P2
2022/11/28 00:01:40;;;;;;;;;0.33;0.00;;;;;11.99;69.23;100722.56;5054364;28;45672;-73
2022/11/28 00:04:06;;;;;;;;;0.00;0.00;;;;;12.15;68.93;100744.81;5053453;28;45456;-72
2022/11/28 00:06:31;;;;;;;;;0.00;0.00;;;;;12.17;69.31;100734.38;5055227;28;46073;-72
2022/11/28 00:08:58;;;;;;;;;2.00;1.00;;;;;11.97;68.92;100697.19;5055165;28;45235;-74
2022/11/28 00:11:24;;;;;;;;;0.67;0.00;;;;;12.13;68.39;100723.81;5056412;28;45388;-71
2022/11/28 00:13:51;;;;;;;;;0.00;0.00;;;;;12.18;69.21;100730.94;5059498;28;45349;-75
2022/11/28 00:16:20;;;;;;;;;1.00;1.00;;;;;12.16;68.49;100724.75;5058736;28;46024;-74
2022/11/28 00:18:46;;;;;;;;;0.00;0.00;;;;;11.94;68.62;100688.41;5058845;28;45610;-73
2022/11/28 00:21:13;;;;;;;;;1.00;0.00;;;;;12.10;68.99;100712.38;5058931;28;45512;-75
2022/11/28 00:23:40;;;;;;;;;1.00;1.00;;;;;12.10;68.44;100712.38;5058815;28;45423;-75
2022/11/28 00:26:10;;;;;;;;;1.00;1.00;;;;;12.07;68.74;100700.06;5059423;28;45259;-75
2022/11/28 00:28:36;;;;;;;;;1.00;1.00;;;;;12.05;69.16;100693.03;5059574;28;45452;-75
2022/11/28 00:31:02;;;;;;;;;1.75;1.00;;;;;11.99;68.84;100680.66;5059596;28;45491;-75
2022/11/28 00:33:30;;;;;;;;;1.00;1.00;;;;;11.81;69.15;100653.97;5059579;28;45337;-75
2022/11/28 00:36:01;;;;;;;;;0.67;0.00;;;;;11.99;69.20;100688.53;5059660;28;45289;-71
2022/11/28 00:38:27;;;;;;;;;1.00;0.00;;;;;11.94;69.34;100672.69;5059347;28;45588;-73
2022/11/28 00:41:13;;;;;;;;;0.00;0.00;;;;;11.91;69.45;100661.25;5058369;28;45508;-77
2022/11/28 00:43:40;;;;;;;;;1.33;0.00;;;;;11.90;69.47;100668.22;5056342;28;45590;-75
2022/11/28 00:46:10;;;;;;;;;0.00;0.00;;;;;11.88;69.40;100675.13;5057591;28;46067;-74
2022/11/28 00:48:36;;;;;;;;;0.00;0.00;;;;;11.68;69.37;100658.00;5058440;28;45822;-75
2022/11/28 00:51:23;;;;;;;;;0.00;0.00;;;;;11.74;68.90;100673.88;5058580;28;45544;-73
2022/11/28 00:53:50;;;;;;;;;0.00;0.00;;;;;11.78;69.68;100699.28;5058324;28;46405;-75
2022/11/28 00:56:22;;;;;;;;;1.00;0.00;;;;;11.72;69.47;100692.16;5058050;28;46164;-75
2022/11/28 00:58:48;;;;;;;;;0.00;0.00;;;;;11.76;69.59;100685.28;5058212;28;45390;-73
2022/11/28 01:01:24;;;;;;;;;0.00;0.00;;;;;11.78;69.02;100683.56;5058375;28;45335;-74
2022/11/28 01:03:52;;;;;;;;;0.00;0.00;;;;;11.59;68.97;100647.28;5055696;28;45445;-74
2022/11/28 01:06:35;;;;;;;;;1.00;1.00;;;;;11.60;69.64;100654.25;5058088;28;45536;-73
2022/11/28 01:09:04;;;;;;;;;1.00;0.00;;;;;11.63;68.59;100663.09;5056808;28;45414;-74
2022/11/28 01:11:30;;;;;;;;;0.00;0.00;;;;;11.66;68.36;100668.44;5055598;28;45429;-73
2022/11/28 01:13:58;;;;;;;;;0.00;0.00;;;;;11.35;69.45;100630.06;5058819;28;45368;-75
2022/11/28 01:16:23;;;;;;;;;0.00;0.00;;;;;11.46;69.72;100659.13;5058317;28;45273;-74
2022/11/28 01:18:50;;;;;;;;;0.00;0.00;;;;;11.49;68.93;100657.47;5057954;28;45465;-75
2022/11/28 01:21:15;;;;;;;;;0.00;0.00;;;;;11.49;69.02;100631.31;5058250;28;45591;-75
2022/11/28 01:23:41;;;;;;;;;0.00;0.00;;;;;11.47;69.21;100611.19;5057263;28;45506;-76
2022/11/28 01:26:08;;;;;;;;;1.00;0.00;;;;;11.43;69.42;100599.75;5058002;28;45483;-75
2022/11/28 01:28:34;;;;;;;;;0.00;0.00;;;;;11.41;69.61;100600.56;5058179;28;45356;-74
2022/11/28 01:31:08;;;;;;;;;0.00;0.00;;;;;11.33;69.33;100576.81;5058156;28;45612;-76
2022/11/28 01:33:34;;;;;;;;;0.00;0.00;;;;;11.34;68.96;100584.72;5056184;28;45338;-75
2022/11/28 01:36:01;;;;;;;;;0.00;0.00;;;;;11.32;69.05;100596.88;5057787;28;45944;-76
2022/11/28 01:38:27;;;;;;;;;0.00;0.00;;;;;11.28;69.42;100597.63;5057950;28;45416;-74
2022/11/28 01:40:53;;;;;;;;;0.67;0.00;;;;;11.23;69.62;100596.59;5058058;28;45410;-75
2022/11/28 01:43:20;;;;;;;;;0.00;0.00;;;;;11.22;69.46;100586.09;5057779;28;45536;-75
2022/11/28 01:45:45;;;;;;;;;0.00;0.00;;;;;11.16;69.93;100586.81;5057571;28;45345;-74
2022/11/28 01:48:17;;;;;;;;;0.00;0.00;;;;;11.05;70.92;100596.09;5073432;28;45509;-76
2022/11/28 01:50:45;;;;;;;;;0.00;0.00;;;;;10.92;72.23;100611.41;5057977;28;45941;-76
2022/11/28 01:53:11;;;;;;;;;0.00;0.00;;;;;10.93;70.79;100604.44;5055033;28;45349;-75
2022/11/28 01:55:45;;;;;;;;;0.00;0.00;;;;;10.96;70.50;100607.13;5057395;28;45296;-74
2022/11/28 01:58:12;;;;;;;;;0.00;0.00;;;;;10.95;70.42;100601.03;5055622;28;45381;-75
2022/11/28 02:00:37;;;;;;;;;0.00;0.00;;;;;10.68;70.54;100559.31;5058427;28;45419;-76
2022/11/28 02:03:14;;;;;;;;;0.33;0.00;;;;;10.97;70.36;100608.06;5058595;28;45306;-75
2022/11/28 02:05:39;;;;;;;;;0.00;0.00;;;;;10.95;70.05;100602.78;5056390;28;45571;-76
2022/11/28 02:08:08;;;;;;;;;0.00;0.00;;;;;10.88;70.71;100604.31;5058392;28;45498;-76
2022/11/28 02:10:47;;;;;;;;;1.00;0.00;;;;;11.00;71.07;100634.25;5058942;28;45344;-76
2022/11/28 02:13:39;;;;;;;;;0.00;0.00;;;;;11.02;70.41;100628.25;5059110;28;45407;-76
2022/11/28 02:16:36;;;;;;;;;0.00;0.00;;;;;11.05;71.12;100632.69;5058537;28;45491;-76
2022/11/28 02:19:05;;;;;;;;;0.00;0.00;;;;;11.06;70.91;100629.22;5058583;28;45357;-76
2022/11/28 02:21:39;;;;;;;;;0.00;0.00;;;;;11.07;70.88;100641.44;5058479;28;45479;-75
2022/11/28 02:24:24;;;;;;;;;1.00;0.00;;;;;11.02;72.32;100643.03;5058743;28;45292;-75
2022/11/28 02:27:10;;;;;;;;;0.00;0.00;;;;;11.01;71.53;100630.81;5058406;28;45457;-75
2022/11/28 02:29:41;;;;;;;;;1.00;0.00;;;;;11.03;71.24;100616.94;5058392;28;45500;-73
2022/11/28 02:32:33;;;;;;;;;1.00;1.00;;;;;11.03;71.24;100614.31;5058487;28;45348;-75
2022/11/28 02:35:32;;;;;;;;;3.75;3.25;;;;;11.02;71.11;100623.03;5058335;28;45424;-74
2022/11/28 02:38:22;;;;;;;;;11.75;11.50;;;;;11.01;71.38;100620.38;5054666;28;46203;-76
2022/11/28 02:40:56;;;;;;;;;1.00;1.00;;;;;11.01;71.66;100629.09;5058409;28;45378;-75
2022/11/28 02:43:40;;;;;;;;;13.75;12.25;;;;;11.02;71.87;100615.19;5073826;28;45432;-75
2022/11/28 02:46:15;;;;;;;;;37.75;31.25;;;;;11.02;71.89;100611.66;5057759;28;45444;-75
2022/11/28 02:49:07;;;;;;;;;11.25;10.00;;;;;11.02;72.21;100606.44;5057895;28;45517;-74
2022/11/28 02:51:38;;;;;;;;;6.75;6.75;;;;;10.99;72.09;100608.97;5057913;28;45456;-75
2022/11/28 02:54:08;;;;;;;;;8.75;8.50;;;;;10.97;72.48;100628.97;5058314;28;45800;-75
2022/11/28 02:56:33;;;;;;;;;12.00;11.75;;;;;10.96;72.98;100643.72;5058163;28;45369;-75
2022/11/28 02:58:59;;;;;;;;;8.00;6.25;;;;;10.98;72.77;100646.41;5058107;28;45406;-76
2022/11/28 03:01:32;;;;;;;;;22.00;21.00;;;;;10.99;73.02;100622.03;5057831;28;45427;-76
2022/11/28 03:04:17;;;;;;;;;19.75;19.25;;;;;10.98;73.69;100628.09;5058350;28;45365;-76
2022/11/28 03:06:59;;;;;;;;;21.75;19.50;;;;;10.98;73.04;100634.22;5057877;28;45497;-75
2022/11/28 03:09:55;;;;;;;;;33.25;28.25;;;;;11.01;72.98;100622.97;5057504;28;45480;-76
2022/11/28 03:12:27;;;;;;;;;25.50;23.50;;;;;11.00;73.43;100626.41;5057725;28;45476;-75
2022/11/28 03:14:56;;;;;;;;;15.00;13.00;;;;;11.01;73.27;100623.84;5057585;28;45364;-75
2022/11/28 03:17:40;;;;;;;;;9.25;9.25;;;;;11.00;73.52;100613.34;5057797;28;45269;-75
2022/11/28 03:20:19;;;;;;;;;2.00;1.50;;;;;11.03;73.50;100605.59;5057499;28;45884;-76
2022/11/28 03:22:50;;;;;;;;;4.50;4.50;;;;;11.01;73.94;100599.44;5057444;28;45164;-76
2022/11/28 03:25:31;;;;;;;;;2.75;2.75;;;;;11.02;73.86;100606.44;5057808;28;45484;-76
2022/11/28 03:28:13;;;;;;;;;0.00;0.00;;;;;10.98;75.12;100625.47;5058188;28;45220;-76
2022/11/28 03:30:49;;;;;;;;;2.50;2.25;;;;;10.81;74.30;100607.59;5057242;28;46388;-76
2022/11/28 03:33:20;;;;;;;;;2.00;1.00;;;;;10.87;74.64;100615.59;5056028;28;45563;-74
2022/11/28 03:35:50;;;;;;;;;3.75;2.75;;;;;10.84;74.66;100607.69;5057502;28;45390;-74
2022/11/28 03:38:32;;;;;;;;;1.00;1.00;;;;;10.89;75.38;100627.00;5057550;28;45359;-74
2022/11/28 03:41:06;;;;;;;;;1.00;0.00;;;;;10.87;75.52;100620.84;5057450;28;45441;-74
2022/11/28 03:43:37;;;;;;;;;0.00;0.00;;;;;10.88;75.93;100634.78;5057630;28;45503;-75
2022/11/28 03:46:07;;;;;;;;;0.00;0.00;;;;;10.91;75.94;100640.13;5056857;28;45274;-71
2022/11/28 03:48:44;;;;;;;;;2.25;2.00;;;;;10.92;75.81;100653.22;5057696;28;45926;-73
2022/11/28 03:51:18;;;;;;;;;0.00;0.00;;;;;10.94;75.66;100654.16;5057131;28;45531;-75
2022/11/28 03:54:03;;;;;;;;;0.00;0.00;;;;;10.98;75.72;100647.28;5057231;28;45470;-75
2022/11/28 03:56:59;;;;;;;;;0.00;0.00;;;;;11.01;75.46;100652.59;5057699;28;45337;-76
2022/11/28 03:59:34;;;;;;;;;0.00;0.00;;;;;10.97;76.33;100655.09;5057565;28;45311;-75
2022/11/28 04:02:05;;;;;;;;;0.00;0.00;;;;;10.98;75.90;100662.09;5057273;28;45544;-76
2022/11/28 04:04:39;;;;;;;;;0.33;0.00;;;;;10.96;76.22;100672.47;5057389;28;45438;-76
2022/11/28 04:07:17;;;;;;;;;1.00;1.00;;;;;11.01;76.00;100668.28;5057010;28;45476;-75
2022/11/28 04:10:06;;;;;;;;;0.00;0.00;;;;;11.04;75.30;100683.19;5057091;28;45267;-76
2022/11/28 04:12:50;;;;;;;;;0.00;0.00;;;;;10.95;75.55;100702.97;5057174;28;45345;-75
2022/11/28 04:15:30;;;;;;;;;0.00;0.00;;;;;10.95;75.49;100716.03;5056690;28;45497;-76
2022/11/28 04:18:05;;;;;;;;;0.00;0.00;;;;;10.94;75.43;100706.44;5056948;28;45480;-76
2022/11/28 04:21:02;;;;;;;;;0.00;0.00;;;;;10.93;74.76;100703.78;5057428;28;45439;-76
2022/11/28 04:23:31;;;;;;;;;0.00;0.00;;;;;10.86;74.28;100697.47;5022554;28;46272;-76
2022/11/28 04:26:05;;;;;;;;;2.00;0.00;;;;;10.83;74.15;100699.97;5056723;28;45243;-76
2022/11/28 04:28:33;;;;;;;;;0.00;0.00;;;;;10.71;73.77;100668.25;5057102;28;45449;-76
2022/11/28 04:31:03;;;;;;;;;0.00;0.00;;;;;10.52;73.40;100635.41;5057013;28;45469;-75
2022/11/28 04:33:32;;;;;;;;;0.00;0.00;;;;;10.76;73.42;100687.56;5056596;28;45329;-75
2022/11/28 04:35:59;;;;;;;;;0.00;0.00;;;;;10.82;73.19;100682.50;5056614;28;45266;-76
2022/11/28 04:38:27;;;;;;;;;1.00;0.00;;;;;10.54;73.30;100621.59;5056753;28;45337;-75
2022/11/28 04:41:00;;;;;;;;;0.00;0.00;;;;;10.78;73.34;100662.34;5056887;28;45453;-77
2022/11/28 04:43:33;;;;;;;;;0.00;0.00;;;;;10.66;73.20;100654.13;5056395;28;45452;-76
2022/11/28 04:46:06;;;;;;;;;0.00;0.00;;;;;10.69;73.61;100670.81;5056617;28;45442;-75
2022/11/28 04:48:32;;;;;;;;;0.33;0.00;;;;;10.71;73.36;100679.56;5056847;28;45373;-75
2022/11/28 04:51:00;;;;;;;;;0.00;0.00;;;;;10.69;73.38;100667.31;5056841;28;45414;-75
2022/11/28 04:53:48;;;;;;;;;0.00;0.00;;;;;10.45;74.81;100660.47;5056458;28;45298;-75
2022/11/28 04:56:22;;;;;;;;;0.00;0.00;;;;;10.41;74.32;100666.44;5056484;28;45396;-76
2022/11/28 04:58:49;;;;;;;;;0.25;0.00;;;;;10.46;74.45;100661.34;5059167;28;45469;-76
2022/11/28 05:01:24;;;;;;;;;0.00;0.00;;;;;10.51;74.15;100662.41;5060112;28;45176;-75
2022/11/28 05:03:50;;;;;;;;;0.00;0.00;;;;;10.53;73.59;100658.97;5059688;28;45429;-76
2022/11/28 05:06:32;;;;;;;;;1.00;0.00;;;;;10.55;73.64;100652.09;5059534;28;45196;-76
2022/11/28 05:08:58;;;;;;;;;0.00;0.00;;;;;10.58;74.26;100666.06;5059828;28;45387;-75
2022/11/28 05:11:25;;;;;;;;;0.00;0.00;;;;;10.62;73.67;100662.72;5060037;28;45399;-76
2022/11/28 05:13:50;;;;;;;;;0.00;0.00;;;;;10.64;73.50;100663.66;5059820;28;45330;-76
2022/11/28 05:16:17;;;;;;;;;0.00;0.00;;;;;10.66;73.40;100651.53;5059772;28;45511;-75
2022/11/28 05:18:42;;;;;;;;;0.00;0.00;;;;;10.68;73.46;100647.22;5059905;28;45773;-76
2022/11/28 05:21:09;;;;;;;;;0.00;0.00;;;;;10.71;73.20;100649.97;5059742;28;45411;-73
2022/11/28 05:23:39;;;;;;;;;0.00;0.00;;;;;10.57;73.22;100609.47;5059863;28;46267;-76
2022/11/28 05:26:11;;;;;;;;;0.00;0.00;;;;;10.71;73.24;100637.78;5059718;28;45293;-76
2022/11/28 05:28:37;;;;;;;;;1.33;0.33;;;;;10.69;73.34;100639.44;5059855;28;45264;-75
2022/11/28 05:31:02;;;;;;;;;0.33;0.00;;;;;10.76;73.47;100650.97;5059943;28;45369;-75
2022/11/28 05:33:29;;;;;;;;;0.00;0.00;;;;;10.76;73.03;100664.03;5059748;28;45546;-75
2022/11/28 05:35:56;;;;;;;;;1.00;1.00;;;;;10.76;73.44;100679.72;5059649;28;45455;-76
2022/11/28 05:38:22;;;;;;;;;0.00;0.00;;;;;10.74;73.22;100668.31;5059630;28;45656;-75
2022/11/28 05:40:48;;;;;;;;;0.00;0.00;;;;;10.70;74.59;100682.13;5061466;28;45222;-75
2022/11/28 05:43:14;;;;;;;;;0.00;0.00;;;;;10.75;73.33;100675.34;5063020;28;45258;-76
2022/11/28 05:45:43;;;;;;;;;2.33;1.00;;;;;10.79;74.05;100713.78;5060673;28;45472;-72
2022/11/28 05:48:09;;;;;;;;;1.00;0.00;;;;;10.83;73.43;100699.09;5059967;28;45405;-76
2022/11/28 05:50:38;;;;;;;;;0.00;0.00;;;;;10.84;74.10;100695.63;5060027;28;45478;-76
2022/11/28 05:53:03;;;;;;;;;2.00;2.00;;;;;10.67;73.97;100664.66;5059318;28;46149;-76
2022/11/28 05:55:29;;;;;;;;;1.33;0.00;;;;;10.90;73.44;100693.22;5059552;28;45493;-76
2022/11/28 05:57:55;;;;;;;;;0.00;0.00;;;;;10.86;73.57;100694.88;5060101;28;45513;-76
2022/11/28 06:00:21;;;;;;;;;2.00;0.00;;;;;10.77;73.46;100672.78;5060149;28;45330;-74
2022/11/28 06:02:48;;;;;;;;;0.00;0.00;;;;;10.85;73.92;100666.94;5066040;28;46235;-75
2022/11/28 06:05:13;;;;;;;;;0.00;0.00;;;;;10.88;73.89;100690.56;5063465;28;45308;-76
2022/11/28 06:07:39;;;;;;;;;2.00;0.33;;;;;10.91;74.62;100701.09;5062107;28;45549;-76
2022/11/28 06:10:06;;;;;;;;;1.00;0.00;;;;;10.64;74.22;100643.63;5060685;28;45515;-74
2022/11/28 06:12:31;;;;;;;;;9.00;5.75;;;;;10.99;74.16;100706.56;5062510;28;45368;-76
2022/11/28 06:14:57;;;;;;;;;23.00;19.50;;;;;10.94;74.39;100698.59;5058997;28;45526;-76
2022/11/28 06:17:22;;;;;;;;;3.00;3.00;;;;;11.01;75.15;100711.84;5059511;28;45278;-76
2022/11/28 06:19:48;;;;;;;;;2.00;1.00;;;;;11.02;74.98;100717.13;5060013;28;45833;-76
2022/11/28 06:22:14;;;;;;;;;1.75;1.75;;;;;11.06;74.75;100713.78;5058138;28;45384;-76
2022/11/28 06:24:39;;;;;;;;;0.00;0.00;;;;;11.06;74.55;100698.09;5059384;28;45291;-76
2022/11/28 06:27:05;;;;;;;;;1.67;0.33;;;;;11.15;74.63;100700.09;5059090;28;45464;-76
2022/11/28 06:29:30;;;;;;;;;0.00;0.00;;;;;11.14;74.29;100716.59;5059829;28;45447;-76
2022/11/28 06:31:56;;;;;;;;;11.75;11.00;;;;;11.13;74.77;100715.72;5060163;28;45402;-76
2022/11/28 06:34:22;;;;;;;;;5.00;5.00;;;;;11.13;74.67;100741.88;5058567;28;45316;-71
2022/11/28 06:36:48;;;;;;;;;14.50;12.50;;;;;11.13;76.01;100764.50;5058501;28;45311;-75
2022/11/28 06:39:15;;;;;;;;;4.00;3.00;;;;;11.08;75.34;100726.88;5058048;28;45460;-75
2022/11/28 06:41:42;;;;;;;;;50.50;39.00;;;;;11.05;75.92;100732.91;5058297;28;45472;-76
2022/11/28 06:44:11;;;;;;;;;19.00;18.75;;;;;11.06;75.78;100728.56;5058479;28;45333;-75
2022/11/28 06:46:37;;;;;;;;;10.50;8.75;;;;;11.08;75.98;100760.84;5058520;28;45434;-71
2022/11/28 06:49:03;;;;;;;;;5.25;5.00;;;;;10.92;76.08;100722.88;5058449;28;45473;-74
2022/11/28 06:51:29;;;;;;;;;1.00;1.00;;;;;10.97;75.71;100723.94;5058033;28;45893;-75
2022/11/28 06:53:54;;;;;;;;;1.00;0.00;;;;;10.93;76.38;100701.16;5057154;28;45619;-76
2022/11/28 06:56:21;;;;;;;;;16.00;15.00;;;;;10.67;77.54;100682.06;5056540;28;45421;-74
2022/11/28 06:58:52;;;;;;;;;2.00;1.00;;;;;10.38;78.57;100695.03;5054010;28;45512;-76
2022/11/28 07:01:20;;;;;;;;;4.50;4.50;;;;;10.13;81.81;100764.69;5056380;28;46001;-76
2022/11/28 07:03:47;;;;;;;;;14.00;11.50;;;;;10.09;82.13;100722.75;5053984;28;45515;-75
2022/11/28 07:06:14;;;;;;;;;6.25;4.00;;;;;10.04;81.99;100719.09;5054306;28;45675;-71
2022/11/28 07:08:40;;;;;;;;;7.00;6.50;;;;;9.82;82.40;100699.19;5054715;28;45551;-71
2022/11/28 07:11:11;;;;;;;;;10.25;8.00;;;;;9.96;82.37;100718.81;5056721;28;45982;-74
2022/11/28 07:13:37;;;;;;;;;4.25;3.00;;;;;9.99;84.28;100738.91;5057308;28;45468;-75
2022/11/28 07:16:04;;;;;;;;;58.50;45.50;;;;;10.00;84.35;100727.66;5056939;28;45219;-70
2022/11/28 07:18:29;;;;;;;;;4.50;3.00;;;;;10.02;84.06;100718.16;5057711;28;45589;-76
2022/11/28 07:20:55;;;;;;;;;14.50;12.50;;;;;10.02;83.63;100732.09;5055872;28;45947;-76
2022/11/28 07:23:21;;;;;;;;;5.00;2.50;;;;;10.04;83.88;100716.47;5057079;28;45287;-74
2022/11/28 07:25:46;;;;;;;;;1.00;0.00;;;;;10.04;83.67;100727.81;5057557;28;45433;-75
2022/11/28 07:28:12;;;;;;;;;9.50;8.00;;;;;10.08;84.75;100737.50;5057369;28;45428;-76
2022/11/28 07:30:37;;;;;;;;;15.50;15.00;;;;;9.99;84.08;100723.25;5055397;28;45595;-75
2022/11/28 07:33:02;;;;;;;;;38.50;33.50;;;;;10.10;85.23;100737.56;5056198;28;45426;-72
2022/11/28 07:35:28;;;;;;;;;14.50;13.00;;;;;10.14;84.22;100715.97;5054907;28;45544;-75
2022/11/28 07:37:54;;;;;;;;;7.00;4.25;;;;;10.12;84.65;100733.28;5057539;28;45499;-71
2022/11/28 07:40:21;;;;;;;;;3.75;2.75;;;;;10.06;84.49;100720.03;5056949;28;46043;-72
2022/11/28 07:42:47;;;;;;;;;1.67;0.67;;;;;10.21;83.83;100727.53;5056976;28;45349;-70
2022/11/28 07:45:13;;;;;;;;;1.67;1.00;;;;;10.24;83.66;100727.59;5039567;28;45466;-70
2022/11/28 07:47:39;;;;;;;;;2.00;1.00;;;;;10.27;84.05;100725.13;5036684;28;45487;-71
2022/11/28 07:50:05;;;;;;;;;6.33;1.33;;;;;10.31;83.62;100721.81;5037121;28;45261;-71
2022/11/28 07:52:30;;;;;;;;;3.25;2.50;;;;;10.34;83.90;100740.16;5044303;28;45389;-69
2022/11/28 07:54:56;;;;;;;;;7.75;5.75;;;;;10.41;83.11;100749.13;5056825;28;45298;-69
2022/11/28 07:57:22;;;;;;;;;2.00;2.00;;;;;10.45;83.30;100754.50;5056690;28;45358;-79
2022/11/28 07:59:47;;;;;;;;;11.00;10.00;;;;;10.57;82.55;100766.19;5055967;28;45971;-77
2022/11/28 08:02:13;;;;;;;;;4.25;3.25;;;;;10.65;81.73;100765.59;5056550;28;45502;-76
2022/11/28 08:04:39;;;;;;;;;2.33;2.33;;;;;10.68;81.50;100773.56;5056100;28;45532;-69
2022/11/28 08:07:04;;;;;;;;;2.00;2.00;;;;;10.68;82.07;100773.56;5056962;28;45516;-76
2022/11/28 08:09:31;;;;;;;;;4.00;3.00;;;;;10.52;82.13;100747.75;5056534;28;45390;-73
2022/11/28 08:11:57;;;;;;;;;3.00;1.00;;;;;10.44;82.01;100749.22;5056565;28;45498;-75
2022/11/28 08:14:23;;;;;;;;;3.00;1.00;;;;;10.69;81.69;100792.72;5057013;28;45495;-70
2022/11/28 08:16:48;;;;;;;;;2.00;2.00;;;;;10.70;81.72;100800.63;5057140;28;45311;-69
2022/11/28 08:19:14;;;;;;;;;2.50;2.50;;;;;10.76;82.02;100797.31;5056825;28;45238;-69
2022/11/28 08:21:40;;;;;;;;;1.00;1.00;;;;;10.83;82.03;100801.91;5056792;28;45440;-68
2022/11/28 08:24:06;;;;;;;;;1.50;1.00;;;;;10.88;81.63;100797.72;5056712;28;45304;-68
2022/11/28 08:26:33;;;;;;;;;6.00;6.00;;;;;10.87;81.17;100801.16;5057025;28;45373;-69
2022/11/28 08:28:59;;;;;;;;;3.25;2.00;;;;;10.89;80.98;100793.38;5056699;28;45354;-76
2022/11/28 08:31:27;;;;;;;;;5.00;2.00;;;;;11.00;81.11;100796.31;5056739;28;45246;-76
2022/11/28 08:33:55;;;;;;;;;2.00;2.00;;;;;11.22;81.86;100777.88;5059660;28;45337;-75
2022/11/28 08:36:21;;;;;;;;;0.00;0.00;;;;;11.35;80.57;100785.25;5060512;28;45400;-76
2022/11/28 08:38:47;;;;;;;;;3.00;3.00;;;;;11.35;80.78;100792.22;5076119;28;45532;-76
2022/11/28 08:41:15;;;;;;;;;5.25;4.50;;;;;11.30;79.96;100780.72;5060598;28;45282;-76
2022/11/28 08:43:41;;;;;;;;;3.25;1.25;;;;;11.24;79.95;100783.13;5060227;28;45253;-74
2022/11/28 08:46:10;;;;;;;;;2.75;2.00;;;;;11.25;80.22;100777.97;5060284;28;45401;-76
2022/11/28 08:48:37;;;;;;;;;13.25;12.25;;;;;11.29;80.14;100778.94;5059980;28;46092;-75
2022/11/28 08:51:03;;;;;;;;;10.50;6.50;;;;;11.34;80.43;100778.25;5059841;28;45322;-74
2022/11/28 08:53:29;;;;;;;;;4.00;3.33;;;;;11.51;80.35;100765.66;5059772;28;45431;-76
2022/11/28 08:55:55;;;;;;;;;9.50;7.75;;;;;11.70;79.18;100767.09;5060114;28;45245;-76
2022/11/28 08:58:21;;;;;;;;;11.50;8.75;;;;;11.80;77.73;100780.44;5059847;28;46151;-75
2022/11/28 09:00:46;;;;;;;;;6.00;4.67;;;;;11.79;78.41;100786.53;5060214;28;45596;-76
2022/11/28 09:03:17;;;;;;;;;6.00;5.00;;;;;11.72;77.34;100781.13;5060130;28;45433;-76
2022/11/28 09:05:45;;;;;;;;;10.25;5.25;;;;;11.67;77.95;100774.84;5060227;28;45304;-73
2022/11/28 09:08:13;;;;;;;;;19.50;19.25;;;;;11.64;78.75;100766.94;5059707;28;46364;-75
2022/11/28 09:10:41;;;;;;;;;12.50;10.50;;;;;11.62;78.07;100768.63;5059424;28;45409;-75
2022/11/28 09:13:10;;;;;;;;;12.50;10.50;;;;;11.59;77.98;100776.38;5059495;28;45437;-76
2022/11/28 09:15:44;;;;;;;;;9.33;5.00;;;;;11.59;78.16;100793.81;5059951;28;45571;-74
2022/11/28 09:18:12;;;;;;;;;21.50;19.50;;;;;11.62;77.39;100799.09;5059513;28;45499;-75
2022/11/28 09:20:38;;;;;;;;;13.00;11.00;;;;;11.48;78.50;100773.44;5059444;28;45437;-76
2022/11/28 09:23:04;;;;;;;;;17.50;12.00;;;;;11.69;77.35;100801.97;5059448;28;45440;-76
2022/11/28 09:25:30;;;;;;;;;15.50;12.50;;;;;11.78;77.45;100800.44;5059600;28;45573;-76
2022/11/28 09:27:55;;;;;;;;;11.50;10.00;;;;;11.86;76.88;100807.69;5059113;28;45341;-77
2022/11/28 09:30:21;;;;;;;;;11.00;8.75;;;;;11.87;75.20;100808.56;5059300;28;45360;-75
2022/11/28 09:32:50;;;;;;;;;12.75;11.50;;;;;11.92;76.89;100804.41;5059894;28;45394;-76
2022/11/28 09:35:16;;;;;;;;;13.00;10.75;;;;;11.91;74.57;100819.19;5059857;28;45156;-76
2022/11/28 09:37:42;;;;;;;;;12.00;11.75;;;;;11.94;75.63;100818.44;5059083;28;46117;-76
2022/11/28 09:40:38;;;;;;;;;14.25;11.75;;;;;11.98;75.61;100829.84;5059142;28;45608;-75
2022/11/28 09:43:22;;;;;;;;;5.00;4.00;;;;;12.11;74.90;100831.97;5059369;28;45488;-76
2022/11/28 09:45:54;;;;;;;;;14.00;11.00;;;;;12.16;74.13;100813.81;5058689;28;45523;-76
2022/11/28 09:48:34;;;;;;;;;8.50;6.00;;;;;12.25;74.71;100819.28;5059293;28;45277;-77
2022/11/28 09:51:30;;;;;;;;;18.00;12.50;;;;;12.42;73.75;100817.13;5058972;28;45321;-76
2022/11/28 09:54:29;;;;;;;;;15.25;13.50;;;;;12.96;75.23;100824.63;5031896;28;46053;-76
2022/11/28 09:56:57;;;;;;;;;1.00;1.00;;;;;13.49;70.71;100824.16;5057930;28;45522;-76
2022/11/28 09:59:29;;;;;;;;;4.00;3.00;;;;;13.80;69.55;100825.69;5058759;28;46095;-75
2022/11/28 10:02:21;;;;;;;;;2.00;2.00;;;;;13.97;70.26;100828.69;5058848;28;45192;-75
2022/11/28 10:05:17;;;;;;;;;2.00;2.00;;;;;14.00;69.66;100818.22;5059330;28;45453;-75
2022/11/28 10:07:52;;;;;;;;;5.33;4.33;;;;;14.05;70.08;100797.34;5058995;28;45328;-76
2022/11/28 10:10:34;;;;;;;;;3.00;3.00;;;;;14.20;70.25;100804.59;5059104;28;45286;-76
2022/11/28 10:13:27;;;;;;;;;6.33;6.00;;;;;14.29;68.86;100792.53;5058490;28;45479;-75
2022/11/28 10:16:24;;;;;;;;;3.00;2.00;;;;;14.31;67.42;100803.09;5058791;28;45361;-74
2022/11/28 10:18:55;;;;;;;;;4.00;4.00;;;;;14.46;68.63;100795.50;5059162;28;45400;-75
2022/11/28 10:21:39;;;;;;;;;8.00;7.67;;;;;14.58;65.96;100796.56;5058977;28;45301;-75
2022/11/28 10:24:13;;;;;;;;;4.00;3.00;;;;;14.45;66.53;100777.94;5058640;28;45317;-76
2022/11/28 10:26:46;;;;;;;;;2.67;2.00;;;;;14.60;66.16;100800.13;5058512;28;45453;-76
2022/11/28 10:29:52;;;;;;;;;0.00;0.00;;;;;14.66;65.33;100805.47;5058731;28;45338;-76
2022/11/28 10:32:29;;;;;;;;;1.00;0.00;;;;;14.63;65.73;100761.63;5047887;28;45456;-69
2022/11/28 10:35:06;;;;;;;;;0.00;0.00;;;;;15.10;65.37;100805.34;5058475;28;45456;-69
2022/11/28 10:37:37;;;;;;;;;0.00;0.00;;;;;15.02;63.90;100794.72;5058262;28;45582;-69
2022/11/28 10:40:41;;;;;;;;;0.00;0.00;;;;;14.77;64.51;100788.16;5058571;28;45369;-69
2022/11/28 10:43:29;;;;;;;;;2.00;1.67;;;;;14.64;64.98;100789.72;5058171;28;46222;-69
2022/11/28 10:46:23;;;;;;;;;0.00;0.00;;;;;14.42;64.67;100801.53;5058048;28;45512;-74
2022/11/28 10:49:09;;;;;;;;;1.00;1.00;;;;;14.02;63.04;100761.34;5058577;28;46005;-76
2022/11/28 10:52:00;;;;;;;;;0.33;0.00;;;;;14.22;63.72;100795.00;5058323;28;45313;-76
2022/11/28 10:55:06;;;;;;;;;1.00;0.00;;;;;14.20;65.79;100789.72;5057845;28;46158;-76
2022/11/28 10:57:37;;;;;;;;;1.00;1.00;;;;;14.14;65.08;100797.50;5057375;28;45508;-76
2022/11/28 11:00:14;;;;;;;;;0.00;0.00;;;;;13.97;64.04;100786.66;5058618;28;45372;-77
2022/11/28 11:03:11;;;;;;;;;1.00;0.00;;;;;13.88;65.24;100807.47;5058191;28;45536;-77
2022/11/28 11:05:37;;;;;;;;;1.00;1.00;;;;;13.82;65.86;100802.09;5045410;28;45603;-77
2022/11/28 11:08:22;;;;;;;;;1.00;0.00;;;;;13.58;65.08;100779.72;5056583;28;45434;-77
2022/11/28 11:10:55;;;;;;;;;0.33;0.33;;;;;13.60;65.80;100785.91;5057900;28;45326;-77
2022/11/28 11:13:27;;;;;;;;;0.67;0.67;;;;;13.40;66.12;100772.34;5058361;28;45279;-76
2022/11/28 11:16:06;;;;;;;;;3.00;2.00;;;;;13.44;65.93;100779.44;5057857;28;45995;-76
2022/11/28 11:18:50;;;;;;;;;6.00;4.67;;;;;13.47;66.81;100786.50;5057708;28;45466;-77
2022/11/28 11:21:22;;;;;;;;;6.67;5.67;;;;;13.47;66.19;100778.63;5057729;28;45430;-77
2022/11/28 11:24:08;;;;;;;;;3.00;2.00;;;;;13.42;66.47;100794.25;5057925;28;45456;-77
2022/11/28 11:26:40;;;;;;;;;2.00;2.00;;;;;13.36;66.20;100791.50;5057319;28;46025;-76
2022/11/28 11:29:19;;;;;;;;;3.67;1.67;;;;;13.25;64.67;100799.09;5057626;28;45207;-77
2022/11/28 11:31:51;;;;;;;;;1.00;1.00;;;;;13.03;65.67;100825.66;5057539;28;45567;-76
2022/11/28 11:34:19;;;;;;;;;1.00;1.00;;;;;12.93;67.45;100828.06;5057711;28;45644;-76
2022/11/28 11:36:45;;;;;;;;;1.33;1.00;;;;;12.86;68.12;100833.13;5057283;28;45281;-75
2022/11/28 11:39:11;;;;;;;;;1.00;0.33;;;;;12.73;68.71;100838.06;5057448;28;45358;-75
2022/11/28 11:41:41;;;;;;;;;0.00;0.00;;;;;12.56;69.83;100818.38;5057658;28;45409;-77
2022/11/28 11:44:13;;;;;;;;;6.67;4.00;;;;;12.67;70.96;100826.50;5057730;28;45321;-76